Time;durP1;ratioP1;P1;durP2;ratioP2;P2;SDS_P1;SDS_P2;PMS_P1;PMS_P2;Temp;Humidity;BMP_temperature;BMP_pressure;BME280_temperature;BME280_humidity;BME280_pressure;Samples;Min_cycle;Max_cycle;Signal;HPM_P1;HPM_P2
2022/09/04 00:02:49;;;;;;;3.27;1.70;;;;;;;10.67;85.96;96032.69;1714963;82;21114;-76
2022/09/04 00:05:36;;;;;;;8.83;2.00;;;;;;;10.69;85.50;96037.50;1716192;84;21447;-76
2022/09/04 00:08:20;;;;;;;2.20;1.37;;;;;;;10.69;85.01;96041.46;1716417;84;21024;-76
2022/09/04 00:11:30;;;;;;;1.92;1.47;;;;;;;10.68;84.79;96043.66;1716032;83;21000;-76
2022/09/04 00:14:08;;;;;;;5.40;1.42;;;;;;;10.62;84.29;96041.10;1716237;83;21083;-76
2022/09/04 00:17:00;;;;;;;2.35;1.40;;;;;;;10.56;85.02;96038.09;1714864;84;21043;-76
2022/09/04 00:19:49;;;;;;;4.15;1.65;;;;;;;10.54;85.28;96038.55;1716209;84;21028;-76
2022/09/04 00:22:56;;;;;;;3.27;1.77;;;;;;;10.54;85.34;96037.69;1716077;83;21023;-77
2022/09/04 00:25:31;;;;;;;3.92;2.00;;;;;;;10.59;85.55;96034.55;1609172;87;21030;-76
2022/09/04 00:28:12;;;;;;;2.95;2.27;;;;;;;10.67;85.58;96037.96;1608872;89;21577;-76
2022/09/04 00:30:44;;;;;;;2.22;1.50;;;;;;;10.72;85.03;96038.78;1663108;84;21003;-77
2022/09/04 00:33:25;;;;;;;7.10;1.50;;;;;;;10.66;84.09;96042.83;1716633;83;21012;-76
2022/09/04 00:35:57;;;;;;;4.12;1.30;;;;;;;10.62;84.34;96031.86;1715644;84;21039;-76
2022/09/04 00:38:33;;;;;;;4.87;1.60;;;;;;;10.59;84.10;96031.45;1716967;82;21078;-76
2022/09/04 00:41:14;;;;;;;1.87;1.77;;;;;;;10.57;83.78;96037.64;1716477;84;20991;-77
2022/09/04 00:44:01;;;;;;;4.58;1.82;;;;;;;10.48;83.58;96045.65;1715471;84;21027;-76
2022/09/04 00:47:13;;;;;;;1.70;1.60;;;;;;;10.35;84.46;96055.01;1716364;84;21050;-76
2022/09/04 00:50:10;;;;;;;3.65;1.60;;;;;;;10.35;84.66;96052.37;1716329;83;21039;-76
2022/09/04 00:53:10;;;;;;;3.12;1.62;;;;;;;10.39;85.33;96058.51;1716585;82;20980;-76
2022/09/04 00:56:17;;;;;;;3.10;2.05;;;;;;;10.44;84.30;96052.73;1715671;83;21576;-76
2022/09/04 00:59:27;;;;;;;3.92;2.22;;;;;;;10.42;84.37;96064.20;1716587;83;21051;-76
2022/09/04 01:02:02;;;;;;;4.12;2.20;;;;;;;10.48;84.59;96058.84;1716517;83;21466;-76
2022/09/04 01:04:43;;;;;;;3.47;1.80;;;;;;;10.57;84.25;96060.07;1716147;84;21039;-76
2022/09/04 01:07:32;;;;;;;4.28;1.90;;;;;;;10.61;83.90;96062.66;1716509;83;21043;-76
2022/09/04 01:10:07;;;;;;;2.45;1.70;;;;;;;10.52;83.34;96075.08;1718583;83;21067;-76
2022/09/04 01:12:42;;;;;;;5.25;1.60;;;;;;;10.42;84.01;96077.39;1724068;82;21074;-75
2022/09/04 01:15:14;;;;;;;4.55;1.70;;;;;;;10.34;83.70;96073.51;1724435;82;20999;-76
2022/09/04 01:18:12;;;;;;;3.00;2.27;;;;;;;10.26;84.64;96081.46;1724513;83;21034;-76
2022/09/04 01:21:16;;;;;;;2.87;1.50;;;;;;;10.31;84.57;96077.50;1723465;83;21811;-76
2022/09/04 01:24:03;;;;;;;4.55;1.60;;;;;;;10.24;84.63;96077.95;1724525;82;21046;-76
2022/09/04 01:26:59;;;;;;;2.52;1.27;;;;;;;10.31;84.51;96082.78;1724572;82;21079;-76
2022/09/04 01:29:49;;;;;;;5.35;1.90;;;;;;;10.29;83.51;96081.45;1724677;82;21046;-76
2022/09/04 01:32:37;;;;;;;2.95;1.50;;;;;;;10.15;83.69;96080.25;1724312;83;21512;-76
2022/09/04 01:35:44;;;;;;;8.08;1.72;;;;;;;10.06;84.57;96078.14;1663695;83;21007;-76
2022/09/04 01:38:31;;;;;;;1.60;1.50;;;;;;;10.02;84.40;96074.64;1724464;83;21022;-76
2022/09/04 01:41:23;;;;;;;3.80;1.47;;;;;;;10.08;85.10;96078.55;1724399;83;21585;-76
2022/09/04 01:43:51;;;;;;;2.17;1.98;;;;;;;10.11;85.13;96078.97;1724593;83;21022;-76
2022/09/04 01:46:35;;;;;;;5.33;1.80;;;;;;;10.22;85.29;96080.19;1724278;83;21473;-76
2022/09/04 01:49:26;;;;;;;4.05;1.92;;;;;;;10.26;84.23;96077.51;1723821;83;21135;-76
2022/09/04 01:52:22;;;;;;;3.62;1.77;;;;;;;10.30;84.37;96078.38;1724414;82;21007;-75
2022/09/04 01:55:19;;;;;;;3.00;2.10;;;;;;;10.29;83.69;96076.64;1724455;82;21050;-76
2022/09/04 01:58:03;;;;;;;2.98;2.02;;;;;;;10.24;83.66;96071.82;1724138;83;21050;-76
2022/09/04 02:00:42;;;;;;;4.90;1.82;;;;;;;10.15;83.41;96068.39;1724503;83;20999;-75
2022/09/04 02:03:38;;;;;;;4.10;1.70;;;;;;;10.03;83.48;96067.59;1724962;82;21015;-76
2022/09/04 02:06:22;;;;;;;4.00;1.55;;;;;;;9.92;83.95;96075.16;1723972;82;21095;-76
2022/09/04 02:09:14;;;;;;;3.33;1.65;;;;;;;9.77;83.69;96077.05;1724162;83;21165;-76
2022/09/04 02:11:47;;;;;;;3.85;1.42;;;;;;;9.63;84.05;96075.84;1724182;83;20996;-75
2022/09/04 02:14:29;;;;;;;;;;;;;;;9.53;86.26;96072.40;1726970;82;21030;-75
2022/09/04 02:17:17;;;;;;;4.03;1.57;;;;;;;9.53;85.85;96071.08;1724138;83;20129;-75
2022/09/04 02:20:10;;;;;;;2.37;1.60;;;;;;;9.57;86.61;96069.28;1724923;81;21101;-75
2022/09/04 02:22:57;;;;;;;2.90;1.52;;;;;;;9.59;85.87;96067.08;1724540;82;20959;-75
2022/09/04 02:25:44;;;;;;;1.85;1.75;;;;;;;9.65;85.89;96063.51;1724665;83;21078;-75
2022/09/04 02:28:25;;;;;;;5.20;1.60;;;;;;;9.64;85.05;96063.96;1724122;83;21027;-75
2022/09/04 02:31:13;;;;;;;3.08;1.60;;;;;;;9.66;85.58;96074.05;1724113;83;21648;-75
2022/09/04 02:33:45;;;;;;;4.40;1.30;;;;;;;9.68;85.32;96067.47;1724428;82;21026;-75
2022/09/04 02:36:32;;;;;;;3.12;1.32;;;;;;;9.71;85.12;96070.07;1697816;83;21540;-75
2022/09/04 02:39:13;;;;;;;2.72;1.50;;;;;;;9.74;85.19;96061.69;1724418;83;21591;-75
2022/09/04 02:42:19;;;;;;;2.00;1.45;;;;;;;9.70;84.94;96067.89;1724471;83;21077;-75
2022/09/04 02:45:06;;;;;;;5.33;1.50;;;;;;;9.67;85.70;96069.65;1724446;82;21556;-75
2022/09/04 02:48:02;;;;;;;2.17;2.00;;;;;;;9.66;85.50;96066.59;1725292;82;21078;-75
2022/09/04 02:50:45;;;;;;;3.30;3.00;;;;;;;9.66;84.90;96067.91;1679794;83;21014;-75
2022/09/04 02:54:07;;;;;;;4.30;2.20;;;;;;;9.61;84.97;96073.66;1724665;82;20987;-75
2022/09/04 02:56:42;;;;;;;5.03;1.70;;;;;;;9.56;85.37;96071.05;1724211;83;21583;-75
2022/09/04 02:59:51;;;;;;;1.60;1.50;;;;;;;9.72;85.99;96071.80;1723677;83;21059;-75
2022/09/04 03:02:46;;;;;;;7.15;1.65;;;;;;;9.81;85.59;96065.61;1724064;82;21054;-75
2022/09/04 03:05:33;;;;;;;3.45;2.00;;;;;;;9.92;85.33;96068.56;1673326;83;21019;-75
2022/09/04 03:08:24;;;;;;;1.90;1.80;;;;;;;9.93;83.92;96067.70;1722653;83;21069;-75
2022/09/04 03:11:22;;;;;;;2.67;1.77;;;;;;;9.87;83.29;96070.36;1729295;82;21031;-75
2022/09/04 03:14:15;;;;;;;6.70;1.50;;;;;;;9.81;84.12;96069.56;1731958;83;21093;-75
2022/09/04 03:17:09;;;;;;;5.03;1.57;;;;;;;9.84;84.58;96074.80;1737760;83;21018;-75
2022/09/04 03:19:44;;;;;;;3.40;2.45;;;;;;;9.90;84.74;96075.64;1731978;81;21058;-75
2022/09/04 03:22:19;;;;;;;2.50;1.70;;;;;;;9.87;84.32;96075.64;1737746;83;21027;-75
2022/09/04 03:25:17;;;;;;;7.95;1.62;;;;;;;9.80;83.40;96083.16;1737270;82;21079;-75
2022/09/04 03:27:44;;;;;;;4.30;1.90;;;;;;;9.74;84.23;96084.53;1737646;83;21442;-75
2022/09/04 03:30:12;;;;;;;3.85;1.50;;;;;;;9.62;84.37;96082.85;1737486;82;21083;-75
2022/09/04 03:33:07;;;;;;;6.87;1.70;;;;;;;9.67;84.75;96084.14;1737400;83;21073;-75
2022/09/04 03:36:05;;;;;;;4.60;1.75;;;;;;;9.69;85.25;96087.65;1734360;81;21003;-75
2022/09/04 03:39:01;;;;;;;8.53;1.60;;;;;;;9.75;85.23;96087.17;1737620;83;21074;-75
2022/09/04 03:41:56;;;;;;;3.50;1.20;;;;;;;9.71;83.70;96087.20;1737304;82;21018;-75
2022/09/04 03:44:54;;;;;;;2.92;1.67;;;;;;;9.62;84.44;96087.25;1737295;83;21031;-75
2022/09/04 03:47:53;;;;;;;5.80;1.60;;;;;;;9.49;85.47;96086.46;1737716;82;21060;-75
2022/09/04 03:51:00;;;;;;;3.20;1.70;;;;;;;9.55;85.05;96082.49;1737493;83;21046;-75
2022/09/04 03:53:50;;;;;;;2.90;1.20;;;;;;;9.54;85.47;96079.41;1738050;82;21027;-75
2022/09/04 03:56:48;;;;;;;2.67;1.80;;;;;;;9.67;85.48;96086.78;1711250;83;21093;-75
2022/09/04 03:59:29;;;;;;;3.17;1.35;;;;;;;9.69;84.19;96090.28;1737504;83;21007;-75
2022/09/04 04:02:24;;;;;;;7.70;1.30;;;;;;;9.53;84.22;96093.47;1737105;83;21034;-75
2022/09/04 04:04:59;;;;;;;5.80;1.40;;;;;;;9.45;85.19;96099.20;1737607;83;20991;-75
2022/09/04 04:07:46;;;;;;;4.28;1.32;;;;;;;9.39;84.50;96096.63;1737641;83;21089;-75
2022/09/04 04:10:44;;;;;;;2.12;1.50;;;;;;;9.31;84.77;96092.27;1738439;81;21022;-75
2022/09/04 04:13:37;;;;;;;3.22;1.42;;;;;;;9.34;85.47;96094.02;1736084;83;21492;-75
2022/09/04 04:16:18;;;;;;;3.85;1.67;;;;;;;9.36;85.40;96101.47;1737197;82;20999;-75
2022/09/04 04:19:19;;;;;;;3.72;1.92;;;;;;;9.38;85.39;96103.66;1736944;83;21101;-74
2022/09/04 04:22:34;;;;;;;2.98;1.95;;;;;;;9.36;84.81;96102.78;1737154;83;21050;-75
2022/09/04 04:25:27;;;;;;;3.25;1.65;;;;;;;9.30;85.11;96114.23;1710466;83;21488;-74
2022/09/04 04:28:10;;;;;;;4.87;1.90;;;;;;;9.26;86.25;96111.17;1737741;83;21019;-75
2022/09/04 04:30:53;;;;;;;5.33;1.65;;;;;;;9.34;86.86;96112.89;1670026;83;21078;-75
2022/09/04 04:33:59;;;;;;;3.50;1.72;;;;;;;9.41;87.16;96103.63;1737437;83;21014;-75
2022/09/04 04:36:40;;;;;;;3.70;1.60;;;;;;;9.51;86.85;96109.28;1737225;83;21034;-75
2022/09/04 04:39:34;;;;;;;3.47;2.33;;;;;;;9.59;87.15;96108.36;1737558;83;21054;-75
2022/09/04 04:42:53;;;;;;;3.98;2.10;;;;;;;9.64;87.23;96107.44;1737395;83;21039;-75
2022/09/04 04:45:50;;;;;;;2.60;1.72;;;;;;;9.74;87.06;96110.89;1737414;83;21053;-75
2022/09/04 04:48:40;;;;;;;2.02;1.77;;;;;;;9.82;86.75;96115.66;1737231;83;21006;-75
2022/09/04 04:51:32;;;;;;;3.98;2.30;;;;;;;9.87;86.25;96124.39;1737214;83;21027;-75
2022/09/04 04:54:14;;;;;;;4.75;1.90;;;;;;;9.93;85.95;96124.38;1737475;82;21029;-75
2022/09/04 04:56:49;;;;;;;4.10;2.10;;;;;;;9.98;85.92;96129.61;1762067;81;21027;-75
2022/09/04 04:59:48;;;;;;;3.80;3.40;;;;;;;10.08;86.11;96132.61;1737447;83;21008;-75
2022/09/04 05:02:50;;;;;;;4.20;3.60;;;;;;;10.18;86.26;96130.77;1762809;81;21050;-75
2022/09/04 05:05:46;;;;;;;3.60;3.25;;;;;;;10.36;86.40;96131.95;1706980;84;20977;-74
2022/09/04 05:08:25;;;;;;;5.72;2.92;;;;;;;10.56;86.37;96126.48;1737354;83;21038;-75
2022/09/04 05:11:17;;;;;;;4.67;2.52;;;;;;;10.73;85.86;96125.42;1738115;81;20991;-75
2022/09/04 05:14:04;;;;;;;4.62;2.20;;;;;;;10.81;85.54;96128.87;1706922;83;21035;-75
2022/09/04 05:16:46;;;;;;;2.42;2.00;;;;;;;10.92;85.48;96136.67;1737507;83;21117;-75
2022/09/04 05:19:36;;;;;;;4.17;2.20;;;;;;;11.04;85.71;96129.48;1738368;81;21023;-75
2022/09/04 05:22:25;;;;;;;2.40;1.95;;;;;;;11.19;85.62;96135.03;1706590;83;21023;-75
2022/09/04 05:25:12;;;;;;;2.70;2.27;;;;;;;11.21;84.23;96131.92;1707092;83;21555;-75
2022/09/04 05:28:19;;;;;;;4.28;2.30;;;;;;;11.24;84.28;96132.33;1737665;83;21524;-76
2022/09/04 05:31:08;;;;;;;2.42;1.80;;;;;;;11.37;85.35;96134.38;1737771;82;21054;-76
2022/09/04 05:33:49;;;;;;;6.65;2.75;;;;;;;11.57;85.21;96134.97;1737650;82;21469;-78
2022/09/04 05:36:54;;;;;;;5.42;2.30;;;;;;;11.72;85.02;96135.20;1737319;83;21026;-78
2022/09/04 05:39:35;;;;;;;3.02;2.08;;;;;;;11.84;84.79;96137.67;1730582;83;21045;-77
2022/09/04 05:42:24;;;;;;;5.25;2.37;;;;;;;11.95;84.39;96141.51;1736263;83;21007;-76
2022/09/04 05:45:08;;;;;;;2.45;2.00;;;;;;;12.12;84.78;96146.55;1737332;83;21055;-76
2022/09/04 05:47:55;;;;;;;6.55;2.10;;;;;;;12.27;84.24;96150.27;1736558;83;21568;-76
2022/09/04 05:50:47;;;;;;;5.08;2.98;;;;;;;12.43;84.58;96146.04;1737422;82;20994;-76
2022/09/04 05:53:37;;;;;;;5.15;2.17;;;;;;;12.55;84.09;96148.48;1707130;84;21023;-77
2022/09/04 05:56:40;;;;;;;2.33;2.02;;;;;;;12.71;83.66;96146.42;1707079;84;21018;-77
2022/09/04 05:59:42;;;;;;;4.55;1.85;;;;;;;12.81;83.57;96144.48;1736814;83;20998;-77
2022/09/04 06:02:39;;;;;;;3.02;2.00;;;;;;;12.99;83.81;96138.83;1738008;83;21070;-78
2022/09/04 06:05:18;;;;;;;9.13;2.35;;;;;;;13.14;83.46;96146.93;1706925;84;21484;-77
2022/09/04 06:08:05;;;;;;;4.55;1.90;;;;;;;13.20;83.09;96141.49;1737025;83;21046;-77
2022/09/04 06:10:52;;;;;;;4.78;1.77;;;;;;;13.30;82.87;96143.55;1737692;83;21023;-77
2022/09/04 06:13:27;;;;;;;4.58;2.02;;;;;;;13.50;82.67;96139.16;1737283;83;21460;-77
2022/09/04 06:16:32;;;;;;;3.85;2.00;;;;;;;13.66;81.87;96133.95;1738069;81;21015;-77
2022/09/04 06:19:19;;;;;;;3.70;2.42;;;;;;;13.78;81.96;96140.74;1737343;83;21105;-77
2022/09/04 06:22:34;;;;;;;2.27;1.98;;;;;;;13.87;80.90;96137.90;1737266;82;21034;-77
2022/09/04 06:25:31;;;;;;;2.83;2.13;;;;;;;13.98;80.65;96138.51;1706435;84;21051;-77
2022/09/04 06:28:30;;;;;;;2.17;1.70;;;;;;;14.09;80.40;96138.28;1737442;83;21007;-77
2022/09/04 06:31:22;;;;;;;6.05;2.10;;;;;;;14.25;80.81;96131.67;1737787;83;21042;-77
2022/09/04 06:34:13;;;;;;;1.82;1.67;;;;;;;14.37;80.27;96141.59;1706478;84;21575;-77
2022/09/04 06:37:21;;;;;;;7.75;2.30;;;;;;;14.43;79.98;96136.13;1706527;84;21026;-76
2022/09/04 06:40:04;;;;;;;5.28;2.22;;;;;;;14.53;80.16;96146.06;1706718;83;21070;-76
2022/09/04 06:42:52;;;;;;;2.58;1.90;;;;;;;14.68;80.36;96139.92;1737770;81;21066;-76
2022/09/04 06:45:47;;;;;;;2.72;1.92;;;;;;;14.82;80.13;96139.58;1705334;83;21114;-77
2022/09/04 06:48:46;;;;;;;3.00;2.20;;;;;;;14.92;79.42;96129.58;1737524;82;21034;-77
2022/09/04 06:51:43;;;;;;;2.47;1.90;;;;;;;15.04;78.94;96134.53;1685139;83;21050;-77
2022/09/04 06:54:27;;;;;;;3.40;2.00;;;;;;;15.04;78.94;96134.53;1662201;85;21043;-77
2022/09/04 06:57:34;;;;;;;3.62;2.22;;;;;;;15.20;79.19;96138.13;1647729;87;21512;-77
2022/09/04 07:00:09;;;;;;;2.83;2.05;;;;;;;15.50;79.43;96133.72;1699804;83;21507;-77
2022/09/04 07:02:59;;;;;;;1.98;1.87;;;;;;;15.50;79.43;96133.72;1737449;83;20978;-77
2022/09/04 07:05:55;;;;;;;3.60;2.02;;;;;;;15.66;79.39;96127.47;1737642;82;21030;-77
2022/09/04 07:08:50;;;;;;;5.33;3.30;;;;;;;15.82;79.07;96126.58;1737239;83;21038;-76
2022/09/04 07:11:42;;;;;;;2.80;1.80;;;;;;;16.00;79.03;96134.88;1737318;81;21027;-75
2022/09/04 07:14:18;;;;;;;3.75;1.95;;;;;;;16.14;78.23;96129.56;1694224;84;21043;-74
2022/09/04 07:16:53;;;;;;;2.60;2.02;;;;;;;16.25;76.56;96131.41;1715946;83;21036;-75
2022/09/04 07:19:59;;;;;;;3.12;1.80;;;;;;;16.38;75.88;96143.42;1716123;82;21046;-75
2022/09/04 07:22:49;;;;;;;1.92;1.80;;;;;;;16.54;75.87;96133.59;1715832;84;21018;-75
2022/09/04 07:25:31;;;;;;;1.70;1.60;;;;;;;16.76;75.63;96135.95;1716576;84;21015;-76
2022/09/04 07:28:19;;;;;;;1.20;0.88;;;;;;;16.97;74.17;96133.02;1717102;81;21035;-75
2022/09/04 07:30:54;;;;;;;1.82;1.57;;;;;;;17.14;72.32;96130.23;1716390;83;21517;-76
2022/09/04 07:33:35;;;;;;;3.25;1.80;;;;;;;17.31;71.47;96133.13;1716466;84;21567;-77
2022/09/04 07:36:13;;;;;;;1.80;1.60;;;;;;;17.52;71.18;96135.50;1714612;84;21035;-77
2022/09/04 07:38:57;;;;;;;1.62;1.52;;;;;;;17.68;71.25;96140.64;1715036;84;21481;-77
2022/09/04 07:41:44;;;;;;;4.12;1.95;;;;;;;17.83;70.08;96139.22;1714846;84;21082;-77
2022/09/04 07:44:28;;;;;;;2.67;2.30;;;;;;;17.97;70.24;96137.37;1707782;84;21032;-77
2022/09/04 07:47:13;;;;;;;3.98;1.95;;;;;;;18.08;65.14;96139.61;1716407;84;21043;-76
2022/09/04 07:50:00;;;;;;;3.10;2.08;;;;;;;18.19;63.90;96145.86;1716245;84;21461;-76
2022/09/04 07:52:55;;;;;;;3.05;2.20;;;;;;;18.16;62.16;96150.86;1716260;84;21035;-77
2022/09/04 07:55:39;;;;;;;2.30;2.10;;;;;;;18.25;64.09;96150.50;1716327;83;20991;-75
2022/09/04 07:58:43;;;;;;;4.55;2.02;;;;;;;18.42;65.45;96145.83;1716179;83;21003;-76
2022/09/04 08:01:28;;;;;;;3.87;2.20;;;;;;;18.50;63.67;96145.51;1716644;83;21007;-76
2022/09/04 08:04:15;;;;;;;2.05;1.92;;;;;;;18.62;62.01;96142.30;1716267;83;21031;-75
2022/09/04 08:07:04;;;;;;;2.58;2.00;;;;;;;18.75;63.85;96150.27;1657437;84;21062;-76
2022/09/04 08:10:11;;;;;;;2.42;2.20;;;;;;;18.74;62.58;96151.15;1716370;84;21529;-77
2022/09/04 08:12:55;;;;;;;3.30;2.62;;;;;;;18.87;63.30;96152.00;1716276;84;20992;-77
2022/09/04 08:15:45;;;;;;;3.40;2.80;;;;;;;19.16;64.00;96142.27;1716472;84;20984;-77
2022/09/04 08:18:45;;;;;;;3.62;2.80;;;;;;;19.40;63.29;96147.02;1715319;84;21512;-76
2022/09/04 08:21:39;;;;;;;3.35;2.62;;;;;;;19.61;61.42;96144.31;1716435;83;21067;-76
2022/09/04 08:24:33;;;;;;;4.85;2.77;;;;;;;19.59;61.75;96156.41;1715361;84;21529;-77
2022/09/04 08:27:05;;;;;;;2.98;2.50;;;;;;;19.50;61.44;96154.61;1598733;88;21087;-77
2022/09/04 08:29:40;;;;;;;4.28;2.67;;;;;;;19.38;61.07;96155.58;1779231;81;20995;-77
2022/09/04 08:32:28;;;;;;;2.75;2.55;;;;;;;19.31;61.36;96154.58;1779134;81;21018;-77
2022/09/04 08:35:28;;;;;;;5.83;2.65;;;;;;;19.30;61.25;96159.03;1779456;81;21034;-77
2022/09/04 08:38:07;;;;;;;2.98;2.67;;;;;;;19.42;60.76;96154.95;1779175;81;21525;-77
2022/09/04 08:40:51;;;;;;;4.05;2.87;;;;;;;19.75;61.23;96155.27;1779133;81;21011;-77
2022/09/04 08:43:32;;;;;;;4.00;2.67;;;;;;;19.70;60.33;96153.27;1779630;81;21018;-77
2022/09/04 08:46:37;;;;;;;4.42;2.70;;;;;;;19.54;60.81;96161.58;1779277;81;20983;-77
2022/09/04 08:49:25;;;;;;;3.37;2.90;;;;;;;19.38;58.78;96152.03;1779327;81;21508;-77
2022/09/04 08:52:27;;;;;;;3.50;2.85;;;;;;;19.46;59.37;96151.22;1778018;81;21504;-76
2022/09/04 08:55:31;;;;;;;3.42;3.12;;;;;;;19.34;59.93;96151.28;1779426;81;20976;-77
2022/09/04 08:58:43;;;;;;;6.95;2.77;;;;;;;19.17;61.08;96149.81;1680025;85;21036;-77
2022/09/04 09:01:21;;;;;;;4.60;2.77;;;;;;;19.01;62.24;96157.17;1665745;86;21038;-77
2022/09/04 09:04:17;;;;;;;2.77;2.45;;;;;;;18.85;63.00;96153.42;1703736;84;21019;-77
2022/09/04 09:06:52;;;;;;;3.02;2.45;;;;;;;18.79;61.76;96154.53;1718340;83;21126;-77
2022/09/04 09:09:47;;;;;;;2.80;2.50;;;;;;;18.81;61.00;96156.67;1719418;82;21038;-77
2022/09/04 09:12:48;;;;;;;4.03;3.12;;;;;;;18.75;61.50;96156.95;1718848;83;21051;-77
2022/09/04 09:15:44;;;;;;;4.67;2.40;;;;;;;18.64;61.51;96150.27;1718556;83;21000;-77
2022/09/04 09:18:42;;;;;;;5.10;2.85;;;;;;;18.60;62.30;96158.89;1718780;83;21054;-77
2022/09/04 09:21:48;;;;;;;3.30;2.40;;;;;;;18.68;62.53;96158.58;1718255;83;21553;-77
2022/09/04 09:24:58;;;;;;;2.87;2.58;;;;;;;19.10;61.53;96152.35;1718563;83;21564;-77
2022/09/04 09:27:53;;;;;;;2.80;2.60;;;;;;;19.50;58.94;96149.26;1718576;83;21572;-77
2022/09/04 09:30:21;;;;;;;2.60;2.40;;;;;;;19.77;57.80;96149.86;1717827;83;21094;-77
2022/09/04 09:33:16;;;;;;;2.47;2.27;;;;;;;20.14;58.56;96150.83;1718765;83;21083;-77
2022/09/04 09:36:19;;;;;;;2.90;2.60;;;;;;;20.48;58.13;96145.55;1718633;82;21028;-77
2022/09/04 09:39:14;;;;;;;2.98;2.67;;;;;;;20.86;57.01;96154.02;1718696;83;21055;-77
2022/09/04 09:42:13;;;;;;;2.65;2.45;;;;;;;20.86;53.54;96150.85;1719808;82;21051;-77
2022/09/04 09:45:05;;;;;;;3.33;2.37;;;;;;;20.71;54.63;96151.63;1719390;82;21047;-77
2022/09/04 09:48:10;;;;;;;3.30;2.58;;;;;;;21.02;54.94;96145.59;1718953;83;21003;-77
2022/09/04 09:51:33;;;;;;;3.05;2.30;;;;;;;21.18;54.52;96148.35;1636686;87;21075;-76
2022/09/04 09:54:47;;;;;;;4.97;2.27;;;;;;;21.48;54.72;96145.05;1645586;87;21540;-76
2022/09/04 09:57:51;;;;;;;4.17;2.00;;;;;;;21.95;53.17;96143.83;1680255;84;21000;-75
2022/09/04 10:00:23;;;;;;;3.33;2.27;;;;;;;22.21;52.13;96141.06;1693707;84;21059;-76
2022/09/04 10:03:23;;;;;;;4.03;2.30;;;;;;;22.19;51.28;96147.00;1694203;84;21600;-77
2022/09/04 10:05:58;;;;;;;2.27;2.08;;;;;;;22.35;53.08;96142.09;1680889;84;21051;-77
2022/09/04 10:08:54;;;;;;;2.33;2.10;;;;;;;22.29;51.69;96142.46;1716499;82;21016;-77
2022/09/04 10:11:44;;;;;;;2.40;2.20;;;;;;;22.38;52.02;96137.44;1716113;84;21043;-77
2022/09/04 10:15:02;;;;;;;2.08;1.80;;;;;;;22.55;49.78;96136.45;1723804;82;21158;-77
2022/09/04 10:18:10;;;;;;;2.72;2.15;;;;;;;22.85;50.71;96138.32;1724056;82;21031;-77
2022/09/04 10:20:57;;;;;;;2.47;2.02;;;;;;;22.98;48.81;96127.73;1724506;82;21470;-77
2022/09/04 10:23:38;;;;;;;3.75;2.10;;;;;;;23.16;49.23;96119.93;1722011;83;21038;-77
2022/09/04 10:26:45;;;;;;;3.58;2.10;;;;;;;23.30;50.26;96125.33;1724391;82;20991;-76
2022/09/04 10:29:32;;;;;;;2.37;2.00;;;;;;;23.49;49.52;96129.61;1724133;83;21087;-77
2022/09/04 10:32:23;;;;;;;2.12;1.92;;;;;;;23.53;45.20;96136.03;1724031;83;21026;-77
2022/09/04 10:35:28;;;;;;;3.58;2.33;;;;;;;23.58;47.86;96126.81;1678013;83;21572;-77
2022/09/04 10:38:12;;;;;;;2.45;2.17;;;;;;;23.73;47.18;96129.44;1723615;83;21439;-77
2022/09/04 10:40:59;;;;;;;2.65;2.42;;;;;;;23.94;46.34;96132.64;1724561;83;21038;-77
2022/09/04 10:44:14;;;;;;;5.15;2.65;;;;;;;24.02;45.32;96126.77;1723003;83;21039;-77
2022/09/04 10:47:01;;;;;;;2.60;2.30;;;;;;;24.06;45.50;96126.08;1724153;83;21038;-77
2022/09/04 10:49:45;;;;;;;3.58;2.22;;;;;;;24.00;46.72;96123.78;1724512;82;21035;-77
2022/09/04 10:52:53;;;;;;;2.20;2.00;;;;;;;23.73;47.68;96124.06;1725352;82;21077;-77
2022/09/04 10:55:56;;;;;;;2.75;2.22;;;;;;;23.50;48.46;96113.82;1724243;82;21130;-77
2022/09/04 10:58:40;;;;;;;3.05;2.25;;;;;;;23.29;48.53;96116.01;1724637;82;21063;-77
2022/09/04 11:01:18;;;;;;;3.37;2.20;;;;;;;23.14;48.59;96123.19;1722442;83;21102;-77
2022/09/04 11:03:50;;;;;;;2.27;2.08;;;;;;;23.14;50.35;96124.53;1696878;83;21025;-77
2022/09/04 11:06:51;;;;;;;2.67;1.90;;;;;;;23.05;49.53;96125.93;1724892;81;21536;-77
2022/09/04 11:09:38;;;;;;;5.20;1.92;;;;;;;23.28;50.32;96129.96;1724261;81;21022;-77
2022/09/04 11:12:30;;;;;;;2.33;1.82;;;;;;;23.79;49.07;96126.88;1724397;82;21066;-77
2022/09/04 11:15:34;;;;;;;3.45;1.92;;;;;;;24.36;48.83;96128.14;1723917;83;21034;-77
2022/09/04 11:18:40;;;;;;;1.80;1.70;;;;;;;24.44;44.29;96132.17;1724839;83;21469;-77
2022/09/04 11:21:32;;;;;;;2.12;1.85;;;;;;;24.10;45.78;96130.31;1724162;83;21023;-77
2022/09/04 11:24:40;;;;;;;1.87;1.77;;;;;;;23.52;45.59;96122.19;1724339;83;21018;-78
2022/09/04 11:27:50;;;;;;;3.27;2.25;;;;;;;23.14;47.76;96125.88;1724572;83;21042;-78
2022/09/04 11:30:22;;;;;;;6.95;2.40;;;;;;;22.80;49.45;96132.34;1667995;83;20995;-77
2022/09/04 11:33:43;;;;;;;2.30;2.10;;;;;;;22.65;49.97;96122.89;1724606;83;21027;-78
2022/09/04 11:37:06;;;;;;;3.25;2.77;;;;;;;22.60;50.10;96129.47;1651979;85;21085;-77
2022/09/04 11:39:38;;;;;;;4.15;2.10;;;;;;;22.47;49.99;96123.93;1724212;83;21528;-77
2022/09/04 11:42:40;;;;;;;2.20;2.00;;;;;;;22.58;51.28;96124.20;1724156;82;21087;-77
2022/09/04 11:45:37;;;;;;;1.87;1.77;;;;;;;22.75;49.21;96131.27;1724594;83;21019;-78
2022/09/04 11:48:36;;;;;;;4.55;2.10;;;;;;;23.68;50.38;96119.41;1712221;82;21090;-77
2022/09/04 11:51:15;;;;;;;2.37;1.80;;;;;;;24.64;49.18;96125.02;1724375;83;21023;-77
2022/09/04 11:54:03;;;;;;;2.02;1.85;;;;;;;25.61;47.69;96103.63;1660297;83;21022;-76
2022/09/04 11:56:41;;;;;;;2.08;1.70;;;;;;;26.61;45.67;96109.98;1724938;81;21561;-76
2022/09/04 11:59:19;;;;;;;1.70;1.60;;;;;;;27.31;40.57;96106.52;1724469;82;21019;-77
2022/09/04 12:02:14;;;;;;;2.22;1.72;;;;;;;27.54;39.48;96107.42;1722663;83;21090;-74
2022/09/04 12:05:39;;;;;;;2.45;2.25;;;;;;;27.55;40.78;96104.61;1724414;83;21031;-76
2022/09/04 12:08:54;;;;;;;3.98;2.05;;;;;;;27.10;41.05;96108.51;1698955;83;21063;-77
2022/09/04 12:11:41;;;;;;;2.60;1.70;;;;;;;26.45;41.81;96110.23;1724419;82;21512;-78
2022/09/04 12:14:29;;;;;;;4.25;1.90;;;;;;;26.38;42.06;96113.00;1724322;82;21039;-78
2022/09/04 12:17:14;;;;;;;1.90;1.45;;;;;;;27.14;41.85;96105.06;1724276;82;21023;-78
2022/09/04 12:20:05;;;;;;;3.20;1.70;;;;;;;26.95;39.80;96102.91;1724281;83;21604;-78
2022/09/04 12:23:04;;;;;;;3.52;1.82;;;;;;;26.47;41.93;96110.98;1724468;83;21015;-77
2022/09/04 12:26:10;;;;;;;1.87;1.77;;;;;;;25.83;42.33;96112.41;1675440;83;21018;-76
2022/09/04 12:29:07;;;;;;;5.55;1.72;;;;;;;25.51;42.95;96106.11;1724238;82;21536;-76
2022/09/04 12:32:02;;;;;;;4.55;1.77;;;;;;;25.09;44.49;96108.55;1724290;82;21019;-78
2022/09/04 12:35:00;;;;;;;2.58;1.70;;;;;;;24.69;44.40;96108.53;1724195;83;21086;-76
2022/09/04 12:37:47;;;;;;;1.95;1.72;;;;;;;24.31;44.95;96104.65;1697449;83;21043;-76
2022/09/04 12:40:40;;;;;;;2.77;2.00;;;;;;;24.08;45.38;96109.33;1723500;83;21087;-76
2022/09/04 12:43:24;;;;;;;1.90;1.80;;;;;;;24.80;44.98;96092.50;1718369;83;21078;-76
2022/09/04 12:45:59;;;;;;;2.30;1.90;;;;;;;26.10;42.47;96093.38;1724398;83;21087;-76
2022/09/04 12:48:37;;;;;;;2.45;1.45;;;;;;;26.98;40.07;96092.69;1724150;83;21015;-77
2022/09/04 12:51:10;;;;;;;2.08;1.77;;;;;;;27.03;37.18;96099.61;1723642;83;21469;-76
2022/09/04 12:54:08;;;;;;;2.52;1.75;;;;;;;27.26;37.80;96091.10;1724108;82;21525;-77
2022/09/04 12:56:47;;;;;;;2.33;1.30;;;;;;;27.38;37.91;96086.09;1724083;83;20999;-76
2022/09/04 12:59:51;;;;;;;1.80;1.70;;;;;;;28.03;38.26;96090.03;1723969;82;21615;-75
2022/09/04 13:03:01;;;;;;;2.40;1.90;;;;;;;28.90;37.80;96077.44;1709031;83;21039;-75
2022/09/04 13:06:02;;;;;;;2.92;1.52;;;;;;;29.53;37.12;96077.98;1724120;82;21042;-75
2022/09/04 13:08:41;;;;;;;2.27;1.50;;;;;;;30.34;34.56;96080.88;1724067;83;21058;-75
2022/09/04 13:11:48;;;;;;;2.70;1.70;;;;;;;29.97;34.61;96078.20;1724294;82;21568;-75
2022/09/04 13:14:26;;;;;;;2.35;1.60;;;;;;;29.16;34.23;96073.03;1720894;82;21039;-76
2022/09/04 13:17:14;;;;;;;2.08;1.60;;;;;;;28.50;35.46;96076.30;1716277;84;21043;-74
2022/09/04 13:19:59;;;;;;;1.40;1.30;;;;;;;27.77;37.42;96075.78;1716610;84;21023;-75
2022/09/04 13:22:38;;;;;;;2.25;1.70;;;;;;;26.98;39.52;96072.88;1716594;82;21028;-75
2022/09/04 13:25:13;;;;;;;2.37;1.80;;;;;;;27.16;44.16;96071.95;1657186;84;21035;-75
2022/09/04 13:28:15;;;;;;;2.60;1.80;;;;;;;27.45;39.88;96067.52;1716576;83;21610;-75
2022/09/04 13:30:58;;;;;;;2.70;1.72;;;;;;;27.01;39.92;96067.22;1716710;83;21031;-75